sensor_id;sensor_type;location;lat;lon;timestamp;pressure;altitude;pressure_sealevel;temperature;humidity
40596;BME280;26304;48.794;9.820;2023-04-09T00:02:39;96930.69;;;17.29;46.41
40596;BME280;26304;48.794;9.820;2023-04-09T00:08:23;96928.41;;;17.28;46.15
40596;BME280;26304;48.794;9.820;2023-04-09T00:14:05;96925.03;;;17.27;46.14
40596;BME280;26304;48.794;9.820;2023-04-09T00:19:48;96921.22;;;17.24;46.22
40596;BME280;26304;48.794;9.820;2023-04-09T00:25:32;96920.13;;;17.25;46.44
40596;BME280;26304;48.794;9.820;2023-04-09T00:31:14;96926.06;;;17.22;46.07
40596;BME280;26304;48.794;9.820;2023-04-09T00:36:56;96925.31;;;17.22;45.97
40596;BME280;26304;48.794;9.820;2023-04-09T00:42:40;96929.81;;;17.21;46.50
40596;BME280;26304;48.794;9.820;2023-04-09T00:48:23;96928.66;;;17.19;46.39
40596;BME280;26304;48.794;9.820;2023-04-09T00:54:06;96929.75;;;17.18;46.54
40596;BME280;26304;48.794;9.820;2023-04-09T00:59:50;96928.25;;;17.17;46.41
40596;BME280;26304;48.794;9.820;2023-04-09T01:05:37;96928.25;;;17.17;46.60
40596;BME280;26304;48.794;9.820;2023-04-09T01:11:31;96935.69;;;17.15;46.14
40596;BME280;26304;48.794;9.820;2023-04-09T01:17:23;96923.69;;;17.14;46.66
40596;BME280;26304;48.794;9.820;2023-04-09T01:23:15;96927.00;;;17.11;46.69
40596;BME280;26304;48.794;9.820;2023-04-09T01:29:02;96925.88;;;17.12;46.56
40596;BME280;26304;48.794;9.820;2023-04-09T01:34:46;96919.81;;;17.08;46.70
40596;BME280;26304;48.794;9.820;2023-04-09T01:40:29;96918.28;;;17.06;46.23
40596;BME280;26304;48.794;9.820;2023-04-09T01:46:14;96920.50;;;17.04;46.53
40596;BME280;26304;48.794;9.820;2023-04-09T01:51:57;96917.88;;;17.04;46.12
40596;BME280;26304;48.794;9.820;2023-04-09T01:57:40;96911.09;;;17.03;46.08
40596;BME280;26304;48.794;9.820;2023-04-09T02:03:25;96916.34;;;17.03;46.43
40596;BME280;26304;48.794;9.820;2023-04-09T02:09:08;96914.06;;;17.02;46.19
40596;BME280;26304;48.794;9.820;2023-04-09T02:14:52;96914.84;;;17.02;46.15
40596;BME280;26304;48.794;9.820;2023-04-09T02:20:37;96913.66;;;17.00;46.47
40596;BME280;26304;48.794;9.820;2023-04-09T02:26:19;96916.63;;;16.98;46.77
40596;BME280;26304;48.794;9.820;2023-04-09T02:32:01;96915.09;;;16.97;46.23
40596;BME280;26304;48.794;9.820;2023-04-09T02:37:45;96915.09;;;16.97;46.30
40596;BME280;26304;48.794;9.820;2023-04-09T02:43:28;96910.53;;;16.94;46.54
40596;BME280;26304;48.794;9.820;2023-04-09T02:49:10;96914.63;;;16.92;46.82
40596;BME280;26304;48.794;9.820;2023-04-09T02:54:54;96916.47;;;16.91;46.47
40596;BME280;26304;48.794;9.820;2023-04-09T03:00:36;96916.47;;;16.91;46.38
40596;BME280;26304;48.794;9.820;2023-04-09T03:06:19;96915.38;;;16.92;46.48
40596;BME280;26304;48.794;9.820;2023-04-09T03:12:02;96909.28;;;16.88;46.48
40596;BME280;26304;48.794;9.820;2023-04-09T03:17:45;96907.78;;;16.87;46.44
40596;BME280;26304;48.794;9.820;2023-04-09T03:23:27;96908.53;;;16.87;46.72
40596;BME280;26304;48.794;9.820;2023-04-09T03:29:15;96890.06;;;16.84;46.48
40596;BME280;26304;48.794;9.820;2023-04-09T03:34:58;96893.44;;;16.84;46.31
40596;BME280;26304;48.794;9.820;2023-04-09T03:40:40;96898.63;;;16.81;46.58
40596;BME280;26304;48.794;9.820;2023-04-09T03:46:24;96896.41;;;16.83;46.83
40596;BME280;26304;48.794;9.820;2023-04-09T03:52:06;96902.69;;;16.78;46.93
40596;BME280;26304;48.794;9.820;2023-04-09T03:57:49;96905.06;;;16.83;46.45
40596;BME280;26304;48.794;9.820;2023-04-09T04:03:33;96908.28;;;16.77;46.87
40596;BME280;26304;48.794;9.820;2023-04-09T04:09:15;96904.91;;;16.76;46.96
40596;BME280;26304;48.794;9.820;2023-04-09T04:14:57;96903.81;;;16.77;46.99
40596;BME280;26304;48.794;9.820;2023-04-09T04:20:41;96902.63;;;16.75;47.54
40596;BME280;26304;48.794;9.820;2023-04-09T04:26:24;96911.06;;;16.84;47.52
40596;BME280;26304;48.794;9.820;2023-04-09T04:32:06;96903.00;;;16.93;47.57
40596;BME280;26304;48.794;9.820;2023-04-09T04:37:50;96905.81;;;16.84;47.29
40596;BME280;26304;48.794;9.820;2023-04-09T04:43:32;96911.59;;;16.74;47.99
40596;BME280;26304;48.794;9.820;2023-04-09T04:49:15;96918.63;;;16.69;48.04
40596;BME280;26304;48.794;9.820;2023-04-09T04:54:59;96926.50;;;16.69;48.34
40596;BME280;26304;48.794;9.820;2023-04-09T05:00:41;96920.72;;;16.80;47.51
40596;BME280;26304;48.794;9.820;2023-04-09T05:06:24;96938.97;;;16.73;47.53
40596;BME280;26304;48.794;9.820;2023-04-09T05:12:09;96930.25;;;16.68;48.44
40596;BME280;26304;48.794;9.820;2023-04-09T05:17:51;96935.94;;;16.70;48.19
40596;BME280;26304;48.794;9.820;2023-04-09T05:23:34;96939.22;;;16.67;48.02
40596;BME280;26304;48.794;9.820;2023-04-09T05:29:17;96940.72;;;16.68;47.33
40596;BME280;26304;48.794;9.820;2023-04-09T05:35:00;96943.34;;;16.68;47.62
40596;BME280;26304;48.794;9.820;2023-04-09T05:40:42;96942.59;;;16.68;47.68
40596;BME280;26304;48.794;9.820;2023-04-09T05:46:27;96948.19;;;16.66;47.92
40596;BME280;26304;48.794;9.820;2023-04-09T05:52:09;96942.09;;;16.62;47.47
40596;BME280;26304;48.794;9.820;2023-04-09T05:57:52;96934.66;;;16.64;47.87
40596;BME280;26304;48.794;9.820;2023-04-09T06:03:35;96943.63;;;16.63;47.90
40596;BME280;26304;48.794;9.820;2023-04-09T06:09:18;96936.34;;;16.73;47.22
40596;BME280;26304;48.794;9.820;2023-04-09T06:15:00;96938.28;;;16.76;47.62
40596;BME280;26304;48.794;9.820;2023-04-09T06:20:45;96942.34;;;16.73;47.65
40596;BME280;26304;48.794;9.820;2023-04-09T06:26:28;96963.50;;;16.80;47.05
40596;BME280;26304;48.794;9.820;2023-04-09T06:32:11;96964.25;;;16.81;47.07
40596;BME280;26304;48.794;9.820;2023-04-09T06:37:54;96970.19;;;16.78;47.44
40596;BME280;26304;48.794;9.820;2023-04-09T06:43:37;96982.22;;;16.79;47.97
40596;BME280;26304;48.794;9.820;2023-04-09T06:49:19;96986.56;;;16.71;47.42
40596;BME280;26304;48.794;9.820;2023-04-09T06:55:03;96988.25;;;16.63;47.61
40596;BME280;26304;48.794;9.820;2023-04-09T07:00:46;96985.47;;;16.72;47.33
40596;BME280;26304;48.794;9.820;2023-04-09T07:06:28;96986.63;;;16.75;47.44
40596;BME280;26304;48.794;9.820;2023-04-09T07:12:12;96992.78;;;16.82;46.63
40596;BME280;26304;48.794;9.820;2023-04-09T07:17:55;96986.69;;;16.78;47.03
40596;BME280;26304;48.794;9.820;2023-04-09T07:23:37;96994.16;;;16.92;46.85
40596;BME280;26304;48.794;9.820;2023-04-09T07:29:24;97000.25;;;16.96;46.96
40596;BME280;26304;48.794;9.820;2023-04-09T07:35:08;97001.75;;;16.97;46.89
40596;BME280;26304;48.794;9.820;2023-04-09T07:40:51;97008.53;;;16.98;46.91
40596;BME280;26304;48.794;9.820;2023-04-09T07:46:38;97008.38;;;16.91;47.56
40596;BME280;26304;48.794;9.820;2023-04-09T07:52:21;97005.97;;;17.02;47.10
40596;BME280;26304;48.794;9.820;2023-04-09T07:58:03;96996.84;;;16.96;47.35
40596;BME280;26304;48.794;9.820;2023-04-09T08:03:47;97005.34;;;16.89;47.51
40596;BME280;26304;48.794;9.820;2023-04-09T08:09:30;97003.41;;;16.86;48.05
40596;BME280;26304;48.794;9.820;2023-04-09T08:15:13;97007.13;;;16.85;47.90
40596;BME280;26304;48.794;9.820;2023-04-09T08:20:57;97011.34;;;16.89;48.26
40596;BME280;26304;48.794;9.820;2023-04-09T08:26:40;97020.00;;;16.90;48.66
40596;BME280;26304;48.794;9.820;2023-04-09T08:32:22;97015.72;;;17.01;48.65
40596;BME280;26304;48.794;9.820;2023-04-09T08:38:06;97021.16;;;16.93;48.54
40596;BME280;26304;48.794;9.820;2023-04-09T08:43:49;97029.03;;;16.93;48.63
40596;BME280;26304;48.794;9.820;2023-04-09T08:49:32;97026.59;;;17.00;48.45
40596;BME280;26304;48.794;9.820;2023-04-09T08:55:16;97018.13;;;16.91;48.16
40596;BME280;26304;48.794;9.820;2023-04-09T09:00:59;97025.22;;;17.06;47.83
40596;BME280;26304;48.794;9.820;2023-04-09T09:06:41;97023.50;;;17.14;47.30
40596;BME280;26304;48.794;9.820;2023-04-09T09:12:33;97024.66;;;17.16;47.95
40596;BME280;26304;48.794;9.820;2023-04-09T09:18:16;97026.03;;;17.10;48.10
40596;BME280;26304;48.794;9.820;2023-04-09T09:23:59;97019.34;;;17.13;47.92
40596;BME280;26304;48.794;9.820;2023-04-09T09:29:43;97031.16;;;17.22;47.71
40596;BME280;26304;48.794;9.820;2023-04-09T09:35:26;97015.47;;;17.26;47.41
40596;BME280;26304;48.794;9.820;2023-04-09T09:41:15;97027.44;;;17.23;47.48
40596;BME280;26304;48.794;9.820;2023-04-09T09:47:02;97013.34;;;17.32;47.45
40596;BME280;26304;48.794;9.820;2023-04-09T09:52:45;97012.59;;;17.31;46.89
40596;BME280;26304;48.794;9.820;2023-04-09T09:58:31;97017.16;;;17.34;47.09
40596;BME280;26304;48.794;9.820;2023-04-09T10:04:19;97014.25;;;17.39;47.28
40596;BME280;26304;48.794;9.820;2023-04-09T10:10:04;97004.78;;;17.35;47.18
40596;BME280;26304;48.794;9.820;2023-04-09T10:15:48;97000.69;;;17.37;46.72
40596;BME280;26304;48.794;9.820;2023-04-09T10:21:37;96998.88;;;17.41;47.38
40596;BME280;26304;48.794;9.820;2023-04-09T10:27:21;96995.28;;;17.50;46.58
40596;BME280;26304;48.794;9.820;2023-04-09T10:33:09;96993.56;;;17.57;46.94
40596;BME280;26304;48.794;9.820;2023-04-09T10:38:54;96987.94;;;17.59;46.42
40596;BME280;26304;48.794;9.820;2023-04-09T10:44:38;96986.00;;;17.56;46.42
40596;BME280;26304;48.794;9.820;2023-04-09T10:50:24;96988.94;;;17.51;47.07
40596;BME280;26304;48.794;9.820;2023-04-09T10:56:14;96982.13;;;17.50;47.41
40596;BME280;26304;48.794;9.820;2023-04-09T11:01:57;96983.03;;;17.57;47.64
40596;BME280;26304;48.794;9.820;2023-04-09T11:07:43;96976.53;;;17.51;46.16
40596;BME280;26304;48.794;9.820;2023-04-09T11:13:29;96968.16;;;17.65;46.08
40596;BME280;26304;48.794;9.820;2023-04-09T11:19:11;96967.66;;;17.59;44.89
40596;BME280;26304;48.794;9.820;2023-04-09T11:24:54;96953.19;;;17.69;45.23
40596;BME280;26304;48.794;9.820;2023-04-09T11:30:38;96959.78;;;17.59;44.56
40596;BME280;26304;48.794;9.820;2023-04-09T11:36:22;96947.13;;;17.65;44.48
40596;BME280;26304;48.794;9.820;2023-04-09T11:42:05;96946.97;;;17.77;44.68
40596;BME280;26304;48.794;9.820;2023-04-09T11:47:49;96953.59;;;17.91;44.63
40596;BME280;26304;48.794;9.820;2023-04-09T11:53:31;96956.75;;;18.00;44.79
40596;BME280;26304;48.794;9.820;2023-04-09T11:59:14;96956.44;;;18.05;44.81
40596;BME280;26304;48.794;9.820;2023-04-09T12:05:02;96953.88;;;18.09;44.51
40596;BME280;26304;48.794;9.820;2023-04-09T12:10:45;96963.03;;;18.19;44.98
40596;BME280;26304;48.794;9.820;2023-04-09T12:16:29;96950.88;;;18.10;44.12
40596;BME280;26304;48.794;9.820;2023-04-09T12:22:13;96941.13;;;18.11;43.99
40596;BME280;26304;48.794;9.820;2023-04-09T12:27:56;96954.75;;;18.17;44.04
40596;BME280;26304;48.794;9.820;2023-04-09T12:33:39;96952.03;;;18.09;43.89
40596;BME280;26304;48.794;9.820;2023-04-09T12:39:24;96953.91;;;18.12;43.27
40596;BME280;26304;48.794;9.820;2023-04-09T12:45:07;96947.09;;;18.08;44.17
40596;BME280;26304;48.794;9.820;2023-04-09T12:50:50;96945.56;;;18.07;43.65
40596;BME280;26304;48.794;9.820;2023-04-09T12:56:34;96945.75;;;18.18;43.26
40596;BME280;26304;48.794;9.820;2023-04-09T13:02:16;96946.50;;;18.18;43.27
40596;BME280;26304;48.794;9.820;2023-04-09T13:07:59;96944.13;;;18.09;43.39
40596;BME280;26304;48.794;9.820;2023-04-09T13:13:43;96939.34;;;17.92;43.20
40596;BME280;26304;48.794;9.820;2023-04-09T13:19:25;96932.03;;;17.85;42.42
40596;BME280;26304;48.794;9.820;2023-04-09T13:25:08;96927.22;;;17.87;42.52
40596;BME280;26304;48.794;9.820;2023-04-09T13:30:52;96926.63;;;17.74;42.82
40596;BME280;26304;48.794;9.820;2023-04-09T13:36:34;96918.44;;;17.79;41.69
40596;BME280;26304;48.794;9.820;2023-04-09T13:42:17;96926.59;;;17.94;42.01
40596;BME280;26304;48.794;9.820;2023-04-09T13:48:00;96931.09;;;17.93;42.43
40596;BME280;26304;48.794;9.820;2023-04-09T13:53:43;96933.16;;;18.07;42.67
40596;BME280;26304;48.794;9.820;2023-04-09T13:59:26;96919.25;;;18.07;42.14
40596;BME280;26304;48.794;9.820;2023-04-09T14:05:10;96914.97;;;18.22;41.52
40596;BME280;26304;48.794;9.820;2023-04-09T14:10:52;96920.94;;;18.19;41.61
40596;BME280;26304;48.794;9.820;2023-04-09T14:16:37;96912.25;;;18.14;42.56
40596;BME280;26304;48.794;9.820;2023-04-09T14:22:20;96907.19;;;18.29;42.64
40596;BME280;26304;48.794;9.820;2023-04-09T14:28:03;96908.50;;;18.42;41.53
40596;BME280;26304;48.794;9.820;2023-04-09T14:33:46;96892.59;;;18.08;42.03
40596;BME280;26304;48.794;9.820;2023-04-09T14:39:32;96893.34;;;18.09;41.48
40596;BME280;26304;48.794;9.820;2023-04-09T14:45:15;96889.69;;;17.44;41.13
40596;BME280;26304;48.794;9.820;2023-04-09T14:50:57;96889.16;;;18.04;41.77
40596;BME280;26304;48.794;9.820;2023-04-09T14:56:41;96888.44;;;17.61;39.42
40596;BME280;26304;48.794;9.820;2023-04-09T15:02:23;96891.38;;;18.02;42.47
40596;BME280;26304;48.794;9.820;2023-04-09T15:08:06;96883.81;;;18.24;42.28
40596;BME280;26304;48.794;9.820;2023-04-09T15:13:51;96886.72;;;18.19;41.31
40596;BME280;26304;48.794;9.820;2023-04-09T15:19:34;96873.47;;;18.11;40.09
40596;BME280;26304;48.794;9.820;2023-04-09T15:25:16;96872.88;;;18.22;40.04
40596;BME280;26304;48.794;9.820;2023-04-09T15:31:00;96870.66;;;18.24;40.06
40596;BME280;26304;48.794;9.820;2023-04-09T15:36:43;96869.25;;;18.03;39.65
40596;BME280;26304;48.794;9.820;2023-04-09T15:42:26;96872.13;;;18.21;39.40
40596;BME280;26304;48.794;9.820;2023-04-09T15:48:10;96871.06;;;18.26;40.38
40596;BME280;26304;48.794;9.820;2023-04-09T15:53:53;96870.53;;;18.43;39.63
40596;BME280;26304;48.794;9.820;2023-04-09T15:59:35;96870.19;;;18.45;40.06
40596;BME280;26304;48.794;9.820;2023-04-09T16:05:19;96874.97;;;18.39;39.84
40596;BME280;26304;48.794;9.820;2023-04-09T16:11:04;96877.22;;;18.37;40.19
40596;BME280;26304;48.794;9.820;2023-04-09T16:16:46;96872.63;;;18.30;39.67
40596;BME280;26304;48.794;9.820;2023-04-09T16:22:37;96876.72;;;18.28;40.45
40596;BME280;26304;48.794;9.820;2023-04-09T16:28:20;96882.94;;;18.43;40.44
40596;BME280;26304;48.794;9.820;2023-04-09T16:34:02;96885.19;;;18.44;41.45
40596;BME280;26304;48.794;9.820;2023-04-09T16:39:46;96881.78;;;18.40;41.36
40596;BME280;26304;48.794;9.820;2023-04-09T16:45:29;96883.59;;;18.36;41.22
40596;BME280;26304;48.794;9.820;2023-04-09T16:51:12;96881.31;;;18.34;40.67
40596;BME280;26304;48.794;9.820;2023-04-09T16:56:55;96880.25;;;18.39;41.39
40596;BME280;26304;48.794;9.820;2023-04-09T17:02:38;96884.72;;;18.35;40.58
40596;BME280;26304;48.794;9.820;2023-04-09T17:08:21;96872.47;;;18.20;40.52
40596;BME280;26304;48.794;9.820;2023-04-09T17:14:06;96875.66;;;18.32;39.91
40596;BME280;26304;48.794;9.820;2023-04-09T17:19:49;96880.34;;;18.46;39.91
40596;BME280;26304;48.794;9.820;2023-04-09T17:25:34;96883.78;;;18.50;40.25
40596;BME280;26304;48.794;9.820;2023-04-09T17:31:21;96883.06;;;18.54;41.11
40596;BME280;26304;48.794;9.820;2023-04-09T17:37:04;96887.44;;;18.42;42.34
40596;BME280;26304;48.794;9.820;2023-04-09T17:42:47;96895.28;;;18.39;41.97
40596;BME280;26304;48.794;9.820;2023-04-09T17:48:31;96905.41;;;18.37;41.93
40596;BME280;26304;48.794;9.820;2023-04-09T17:54:14;96902.44;;;18.38;42.30
40596;BME280;26304;48.794;9.820;2023-04-09T17:59:56;96898.47;;;18.25;42.81
40596;BME280;26304;48.794;9.820;2023-04-09T18:05:40;96905.38;;;18.06;42.73
40596;BME280;26304;48.794;9.820;2023-04-09T18:11:23;96905.50;;;17.90;42.26
40596;BME280;26304;48.794;9.820;2023-04-09T18:17:05;96910.41;;;17.92;42.06
40596;BME280;26304;48.794;9.820;2023-04-09T18:22:49;96919.66;;;17.86;42.06
40596;BME280;26304;48.794;9.820;2023-04-09T18:28:32;96928.97;;;17.79;41.71
40596;BME280;26304;48.794;9.820;2023-04-09T18:34:15;96928.00;;;17.88;41.34
40596;BME280;26304;48.794;9.820;2023-04-09T18:39:58;96939.88;;;17.82;42.03
40596;BME280;26304;48.794;9.820;2023-04-09T18:45:41;96938.50;;;17.88;41.55
40596;BME280;26304;48.794;9.820;2023-04-09T18:51:23;96940.88;;;17.96;41.24
40596;BME280;26304;48.794;9.820;2023-04-09T18:57:07;96942.09;;;17.79;41.34
40596;BME280;26304;48.794;9.820;2023-04-09T19:02:50;96939.06;;;17.77;40.62
40596;BME280;26304;48.794;9.820;2023-04-09T19:08:32;96946.13;;;17.73;39.32
40596;BME280;26304;48.794;9.820;2023-04-09T19:14:18;96956.25;;;17.71;40.23
40596;BME280;26304;48.794;9.820;2023-04-09T19:20:03;96965.47;;;17.61;38.82
40596;BME280;26304;48.794;9.820;2023-04-09T19:25:49;96963.75;;;17.50;39.07
40596;BME280;26304;48.794;9.820;2023-04-09T19:31:32;96956.97;;;17.29;39.61
40596;BME280;26304;48.794;9.820;2023-04-09T19:37:17;96969.22;;;17.41;38.74
40596;BME280;26304;48.794;9.820;2023-04-09T19:42:59;96971.91;;;17.45;39.58
40596;BME280;26304;48.794;9.820;2023-04-09T19:48:43;96976.19;;;17.53;39.82
40596;BME280;26304;48.794;9.820;2023-04-09T19:54:26;96981.44;;;17.53;39.91
40596;BME280;26304;48.794;9.820;2023-04-09T20:00:09;96990.44;;;17.52;40.58
40596;BME280;26304;48.794;9.820;2023-04-09T20:05:54;96979.09;;;17.48;40.75
40596;BME280;26304;48.794;9.820;2023-04-09T20:11:36;96973.84;;;17.48;40.80
40596;BME280;26304;48.794;9.820;2023-04-09T20:17:18;96975.28;;;17.45;40.55
40596;BME280;26304;48.794;9.820;2023-04-09T20:23:02;96970.38;;;17.43;40.97
40596;BME280;26304;48.794;9.820;2023-04-09T20:28:46;96965.00;;;17.36;40.97
40596;BME280;26304;48.794;9.820;2023-04-09T20:34:28;96975.13;;;17.34;41.52
40596;BME280;26304;48.794;9.820;2023-04-09T20:40:15;96961.53;;;17.32;41.53
40596;BME280;26304;48.794;9.820;2023-04-09T20:45:57;96970.13;;;17.29;41.64
40596;BME280;26304;48.794;9.820;2023-04-09T20:51:43;96967.84;;;17.28;41.57
40596;BME280;26304;48.794;9.820;2023-04-09T20:57:30;96971.16;;;17.24;42.04
40596;BME280;26304;48.794;9.820;2023-04-09T21:03:13;96967.78;;;17.24;42.05
40596;BME280;26304;48.794;9.820;2023-04-09T21:08:55;96968.47;;;17.21;42.20
40596;BME280;26304;48.794;9.820;2023-04-09T21:14:39;96968.47;;;17.21;42.16
40596;BME280;26304;48.794;9.820;2023-04-09T21:20:22;96968.06;;;17.19;41.78
40596;BME280;26304;48.794;9.820;2023-04-09T21:26:04;96958.63;;;17.18;42.17
40596;BME280;26304;48.794;9.820;2023-04-09T21:31:48;96967.22;;;17.15;42.13
40596;BME280;26304;48.794;9.820;2023-04-09T21:37:31;96963.84;;;17.14;42.37
40596;BME280;26304;48.794;9.820;2023-04-09T21:43:13;96964.88;;;17.10;42.16
40596;BME280;26304;48.794;9.820;2023-04-09T21:48:58;96960.72;;;17.09;42.50
40596;BME280;26304;48.794;9.820;2023-04-09T21:54:40;96965.63;;;17.10;42.10
40596;BME280;26304;48.794;9.820;2023-04-09T22:00:22;96963.34;;;17.09;42.43
40596;BME280;26304;48.794;9.820;2023-04-09T22:06:08;96968.19;;;17.06;41.95
40596;BME280;26304;48.794;9.820;2023-04-09T22:11:50;96979.38;;;17.03;42.15
40596;BME280;26304;48.794;9.820;2023-04-09T22:17:33;96971.50;;;17.03;42.42
40596;BME280;26304;48.794;9.820;2023-04-09T22:23:16;96978.97;;;17.01;42.56
40596;BME280;26304;48.794;9.820;2023-04-09T22:28:59;96977.44;;;17.00;42.46
40596;BME280;26304;48.794;9.820;2023-04-09T22:34:41;96963.53;;;17.00;42.05
40596;BME280;26304;48.794;9.820;2023-04-09T22:40:25;96959.72;;;16.97;42.48
40596;BME280;26304;48.794;9.820;2023-04-09T22:46:07;96955.59;;;16.96;42.12
40596;BME280;26304;48.794;9.820;2023-04-09T22:51:52;96948.81;;;16.95;42.53
40596;BME280;26304;48.794;9.820;2023-04-09T22:57:36;96947.28;;;16.94;42.21
40596;BME280;26304;48.794;9.820;2023-04-09T23:03:18;96945.34;;;16.91;42.11
40596;BME280;26304;48.794;9.820;2023-04-09T23:09:00;96937.06;;;16.89;42.26
40596;BME280;26304;48.794;9.820;2023-04-09T23:14:44;96931.47;;;16.91;42.42
40596;BME280;26304;48.794;9.820;2023-04-09T23:20:28;96939.69;;;16.89;42.59
40596;BME280;26304;48.794;9.820;2023-04-09T23:26:10;96934.03;;;16.87;42.15
40596;BME280;26304;48.794;9.820;2023-04-09T23:31:54;96933.28;;;16.86;42.47
40596;BME280;26304;48.794;9.820;2023-04-09T23:37:36;96927.56;;;16.84;42.57
40596;BME280;26304;48.794;9.820;2023-04-09T23:43:19;96931.66;;;16.82;42.10
40596;BME280;26304;48.794;9.820;2023-04-09T23:49:02;96930.13;;;16.81;42.60
40596;BME280;26304;48.794;9.820;2023-04-09T23:54:47;96920.72;;;16.80;42.41
